ADDS METAR Data INFO
IDs: Format: Raw Decoded Include TAF

Data at: 0356 UTC 19 Jul 2018

KTPH 190256Z AUTO 21011KT 10SM CLR 32/09 A3014 RMK AO2 SLP106 T03220089 55003
KTPH 190156Z AUTO 21012KT 10SM CLR 34/08 A3013 RMK AO2 SLP108 T03390083
KTPH 190056Z AUTO 21012KT 10SM CLR 34/09 A3014 RMK AO2 SLP112 T03440089
KTPH 182356Z AUTO 21012KT 10SM CLR 34/09 A3015 RMK AO2 PK WND 19030/2307 SLP114 T03440089 10372 20311 56009
KTPH 182308Z AUTO 20022G30KT 7SM FEW027 FEW120 35/10 A3016 RMK AO2 PK WND 19030/2307 T03500100
KTPH 182256Z AUTO 24010KT 10SM VCTS FEW120 36/06 A3016 RMK AO2 LTG DSNT S SLP113 T03560061
KTPH 182253Z AUTO 23007KT 10SM VCTS FEW120 36/06 A3016 RMK AO2 LTG DSNT S
KTPH 182156Z AUTO 31008KT 10SM CLR 37/04 A3018 RMK AO2 SLP118 T03670044
KTPH 182056Z AUTO 20007KT 180V260 10SM CLR 36/05 A3020 RMK AO2 SLP125 T03610050 58015
KTPH 181956Z AUTO 10SM CLR 34/02 A3022 RMK AO2 SLP132 T03440017
KTPH 181856Z AUTO VRB05KT 10SM CLR 34/02 A3024 RMK AO2 SLP139 T03390022
KTPH 181756Z AUTO 10SM CLR 31/04 A3026 RMK AO2 SLP147 T03110044 10311 20194 58001
KTPH 181656Z AUTO 00000KT 10SM CLR 29/05 A3026 RMK AO2 SLP148 T02940050
KTPH 181556Z AUTO 16003KT 10SM CLR 27/06 A3027 RMK AO2 SLP157 T02720061
KTPH 181456Z AUTO 01005KT 10SM CLR 25/07 A3026 RMK AO2 SLP149 T02500072 51009
KTPH 181356Z AUTO 01006KT 10SM CLR 22/09 A3025 RMK AO2 SLP146 T02170089
KTPH 181256Z AUTO VRB05KT 10SM CLR 20/07 A3025 RMK AO2 SLP146 T02000067
KTPH 181156Z AUTO 34004KT 10SM CLR 21/06 A3023 RMK AO2 SLP137 T02110056 10283 20200 53011
KTPH 181056Z AUTO 36009KT 10SM CLR 22/06 A3021 RMK AO2 SLP129 T02220061
KTPH 180956Z AUTO 04012KT 10SM CLR 23/05 A3019 RMK AO2 SLP123 T02330050
KTPH 180856Z AUTO 01012KT 10SM CLR 24/05 A3019 RMK AO2 SLP123 T02390050 51008
KTPH 180756Z AUTO 03008KT 10SM CLR 25/06 A3019 RMK AO2 SLP122 T02500061 403720206
KTPH 180656Z AUTO 36005KT 10SM CLR 26/08 A3018 RMK AO2 SLP117 T02610078
KTPH 180556Z AUTO 05003KT 10SM CLR 27/10 A3016 RMK AO2 SLP113 T02670100 10367 20261 53009
KTPH 180456Z AUTO 35005KT 10SM CLR 28/08 A3015 RMK AO2 SLP108 T02830078
KTPH 180356Z AUTO 00000KT 10SM CLR 28/09 A3014 RMK AO2 SLP108 T02830089
KTPH 180256Z AUTO 00000KT 10SM CLR 33/06 A3013 RMK AO2 SLP103 T03280056 55004
KTPH 180156Z AUTO 00000KT 10SM CLR 36/02 A3013 RMK AO2 SLP100 T03560022
KTPH 180056Z AUTO 28006KT 10SM CLR 36/02 A3013 RMK AO2 SLP102 T03610022
KTPH 172356Z AUTO 30010KT 10SM CLR 37/03 A3014 RMK AO2 SLP106 T03670028 10372 20311 58016
KTPH 172256Z AUTO 32008KT 10SM CLR 37/04 A3016 RMK AO2 SLP111 T03670039
KTPH 172156Z AUTO 10SM CLR 36/04 A3018 RMK AO2 SLP120 T03560044
KTPH 172056Z AUTO 21010G17KT 10SM CLR 35/07 A3020 RMK AO2 SLP123 T03500072 58012
KTPH 171956Z AUTO VRB03KT 10SM CLR 34/08 A3022 RMK AO2 SLP131 T03390083
KTPH 171856Z AUTO VRB03KT 10SM CLR 33/09 A3023 RMK AO2 SLP137 T03280089
KTPH 171756Z AUTO 00000KT 10SM CLR 32/09 A3024 RMK AO2 SLP138 T03170089 10322 20206 51002
KTPH 171656Z AUTO 00000KT 10SM CLR 30/09 A3024 RMK AO2 SLP138 T03000089